Saint Eustatius, St. Eustatius

7:17 PM AST on March 26, 2015 (GMT -0400)
IDUTCHCA4 | | Change Station
CLOSE
Current Station
Personal Weather Station
Location: Oranjestad, DUTCH CARIBBEAN
Elevation: 575 ft
Nearby Weather Stations

Elev 575 ft 17.48 °N, 62.97 °W | Updated 3 seconds ago

Partly Cloudy
Partly Cloudy
75.8 °F
Feels Like 76 °F
N
5.0
Wind Variable Wind from WSW

Today
High -- | Low -- °F
--% Chance of Precip.
Yesterday
High -- | Low -- °F
Precip. -- in
6:11 AM 6:24 PM
Waxing Crescent, 46% visible
Pressure 30.04 in
Visibility 6.2 miles
Clouds Few 2000 ft
Heat Index 76 °F
Dew Point 70 °F
Humidity 83%
Rainfall 0.00 in
Snow Depth Not available.
UV 0.0 out of 12
Pollen Not available.
Air Quality Not available.
Flu Activity Not available.
METAR TKPK 262300Z 07012KT 9999 FEW020 25/21 Q1017

More Conditions Fewer Conditions

Pressure 30.04 in
Visibility 6.2 miles
Clouds Few 2000 ft
Heat Index 76 °F
Dew Point 70 °F
Humidity 83%
Rainfall 0.00 in
Snow Depth Not available.
UV 0.0 out of 12
Pollen Not available.
Air Quality Not available.
Flu Activity Not available.
METAR TKPK 262300Z 07012KT 9999 FEW020 25/21 Q1017

More Conditions Fewer Conditions

10-Day Weather Forecast

Almanac

Astronomy

Mar. 26, 2015 Rise Set
Actual Time
Civil Twilight
Nautical Twilight
Astronomical Twilight
Moon
Length of Visible Light
Length of Day
Tomorrow will be .
, % of the Moon is Illuminated

Today's Extremes

Country Highs Country Lows

Community

WunderPhotos

Upload Photos

1,808,633 photos uploaded!

WunderBlogs® & News

Nearby

Air Quality

  Air Quality AQ Index Pollutant
Not available.

Snow Depth

Station Depth Elevation

Earthquake Activity

City Distance Mag. Time & Date
Minimum magnitude displayed is 2.5.

Coastal Water Temperatures

Place Temperature

Stations

Nearby Weather Stations

Station Location Temp. Windchill Dew Point Humidity Wind Precip. Elev Updated Type